sensor_id;sensor_type;location;lat;lon;timestamp;P1;durP1;ratioP1;P2;durP2;ratioP2
7729;SDS011;3908;52.310;7.230;2023-06-19T00:01:16;9.27;;;6.60;;
7729;SDS011;3908;52.310;7.230;2023-06-19T00:04:03;9.82;;;6.40;;
7729;SDS011;3908;52.310;7.230;2023-06-19T00:06:51;9.38;;;6.50;;
7729;SDS011;3908;52.310;7.230;2023-06-19T00:09:38;9.10;;;6.53;;
7729;SDS011;3908;52.310;7.230;2023-06-19T00:12:25;9.38;;;6.47;;
7729;SDS011;3908;52.310;7.230;2023-06-19T00:15:12;8.23;;;6.50;;
7729;SDS011;3908;52.310;7.230;2023-06-19T00:17:58;8.43;;;6.53;;
7729;SDS011;3908;52.310;7.230;2023-06-19T00:20:45;9.75;;;6.30;;
7729;SDS011;3908;52.310;7.230;2023-06-19T00:23:34;8.60;;;6.20;;
7729;SDS011;3908;52.310;7.230;2023-06-19T00:26:20;8.65;;;6.95;;
7729;SDS011;3908;52.310;7.230;2023-06-19T00:29:10;8.55;;;6.63;;
7729;SDS011;3908;52.310;7.230;2023-06-19T00:31:57;9.95;;;7.40;;
7729;SDS011;3908;52.310;7.230;2023-06-19T00:34:44;10.23;;;7.03;;
7729;SDS011;3908;52.310;7.230;2023-06-19T00:37:30;9.77;;;7.20;;
7729;SDS011;3908;52.310;7.230;2023-06-19T00:40:21;8.57;;;6.25;;
7729;SDS011;3908;52.310;7.230;2023-06-19T00:43:11;10.48;;;6.85;;
7729;SDS011;3908;52.310;7.230;2023-06-19T00:45:58;9.55;;;6.72;;
7729;SDS011;3908;52.310;7.230;2023-06-19T00:48:45;8.30;;;6.65;;
7729;SDS011;3908;52.310;7.230;2023-06-19T00:51:32;9.85;;;7.20;;
7729;SDS011;3908;52.310;7.230;2023-06-19T00:54:19;9.30;;;6.78;;
7729;SDS011;3908;52.310;7.230;2023-06-19T00:57:08;9.25;;;6.35;;
7729;SDS011;3908;52.310;7.230;2023-06-19T00:59:54;8.43;;;6.60;;
7729;SDS011;3908;52.310;7.230;2023-06-19T01:02:41;8.43;;;6.50;;
7729;SDS011;3908;52.310;7.230;2023-06-19T01:05:28;8.55;;;6.32;;
7729;SDS011;3908;52.310;7.230;2023-06-19T01:08:18;10.18;;;7.07;;
7729;SDS011;3908;52.310;7.230;2023-06-19T01:11:08;9.15;;;6.40;;
7729;SDS011;3908;52.310;7.230;2023-06-19T01:13:58;7.55;;;6.78;;
7729;SDS011;3908;52.310;7.230;2023-06-19T01:16:49;13.38;;;6.47;;
7729;SDS011;3908;52.310;7.230;2023-06-19T01:19:36;9.57;;;7.13;;
7729;SDS011;3908;52.310;7.230;2023-06-19T01:22:25;7.78;;;6.75;;
7729;SDS011;3908;52.310;7.230;2023-06-19T01:25:12;10.88;;;7.10;;
7729;SDS011;3908;52.310;7.230;2023-06-19T01:27:59;10.13;;;7.15;;
7729;SDS011;3908;52.310;7.230;2023-06-19T01:30:47;8.73;;;6.60;;
7729;SDS011;3908;52.310;7.230;2023-06-19T01:33:34;10.18;;;6.60;;
7729;SDS011;3908;52.310;7.230;2023-06-19T01:36:21;11.60;;;7.10;;
7729;SDS011;3908;52.310;7.230;2023-06-19T01:39:11;10.85;;;6.75;;
7729;SDS011;3908;52.310;7.230;2023-06-19T01:41:59;9.30;;;6.90;;
7729;SDS011;3908;52.310;7.230;2023-06-19T01:44:46;7.95;;;6.55;;
7729;SDS011;3908;52.310;7.230;2023-06-19T01:47:33;8.38;;;6.35;;
7729;SDS011;3908;52.310;7.230;2023-06-19T01:50:20;11.80;;;7.38;;
7729;SDS011;3908;52.310;7.230;2023-06-19T01:53:07;9.40;;;7.47;;
7729;SDS011;3908;52.310;7.230;2023-06-19T01:55:56;13.35;;;7.72;;
7729;SDS011;3908;52.310;7.230;2023-06-19T01:58:43;9.57;;;7.43;;
7729;SDS011;3908;52.310;7.230;2023-06-19T02:01:30;11.00;;;7.20;;
7729;SDS011;3908;52.310;7.230;2023-06-19T02:04:16;8.57;;;6.68;;
7729;SDS011;3908;52.310;7.230;2023-06-19T02:07:03;10.15;;;7.45;;
7729;SDS011;3908;52.310;7.230;2023-06-19T02:09:50;9.27;;;7.25;;
7729;SDS011;3908;52.310;7.230;2023-06-19T02:12:38;7.93;;;6.82;;
7729;SDS011;3908;52.310;7.230;2023-06-19T02:15:25;8.38;;;6.55;;
7729;SDS011;3908;52.310;7.230;2023-06-19T02:18:12;9.45;;;7.20;;
7729;SDS011;3908;52.310;7.230;2023-06-19T02:20:59;7.32;;;6.43;;
7729;SDS011;3908;52.310;7.230;2023-06-19T02:23:45;8.85;;;6.75;;
7729;SDS011;3908;52.310;7.230;2023-06-19T02:26:32;7.97;;;6.68;;
7729;SDS011;3908;52.310;7.230;2023-06-19T02:29:20;8.68;;;6.72;;
7729;SDS011;3908;52.310;7.230;2023-06-19T02:32:07;8.30;;;6.63;;
7729;SDS011;3908;52.310;7.230;2023-06-19T02:34:54;8.98;;;6.90;;
7729;SDS011;3908;52.310;7.230;2023-06-19T02:37:41;8.95;;;7.10;;
7729;SDS011;3908;52.310;7.230;2023-06-19T02:40:27;8.23;;;6.60;;
7729;SDS011;3908;52.310;7.230;2023-06-19T02:43:15;11.75;;;7.15;;
7729;SDS011;3908;52.310;7.230;2023-06-19T02:46:03;9.75;;;7.43;;
7729;SDS011;3908;52.310;7.230;2023-06-19T02:48:50;9.00;;;7.38;;
7729;SDS011;3908;52.310;7.230;2023-06-19T02:51:37;9.20;;;6.88;;
7729;SDS011;3908;52.310;7.230;2023-06-19T02:54:23;8.95;;;6.63;;
7729;SDS011;3908;52.310;7.230;2023-06-19T02:57:10;8.60;;;6.47;;
7729;SDS011;3908;52.310;7.230;2023-06-19T02:59:57;8.98;;;6.65;;
7729;SDS011;3908;52.310;7.230;2023-06-19T03:02:45;10.65;;;7.25;;
7729;SDS011;3908;52.310;7.230;2023-06-19T03:05:33;9.05;;;7.15;;
7729;SDS011;3908;52.310;7.230;2023-06-19T03:08:20;8.82;;;7.65;;
7729;SDS011;3908;52.310;7.230;2023-06-19T03:11:07;9.50;;;7.25;;
7729;SDS011;3908;52.310;7.230;2023-06-19T03:13:56;9.90;;;8.18;;
7729;SDS011;3908;52.310;7.230;2023-06-19T03:16:43;10.20;;;6.75;;
7729;SDS011;3908;52.310;7.230;2023-06-19T03:19:31;7.40;;;6.60;;
7729;SDS011;3908;52.310;7.230;2023-06-19T03:22:19;10.80;;;7.50;;
7729;SDS011;3908;52.310;7.230;2023-06-19T03:25:06;8.35;;;6.72;;
7729;SDS011;3908;52.310;7.230;2023-06-19T03:27:53;10.70;;;8.38;;
7729;SDS011;3908;52.310;7.230;2023-06-19T03:30:40;10.65;;;7.47;;
7729;SDS011;3908;52.310;7.230;2023-06-19T03:33:26;9.70;;;7.53;;
7729;SDS011;3908;52.310;7.230;2023-06-19T03:36:14;13.52;;;7.40;;
7729;SDS011;3908;52.310;7.230;2023-06-19T03:39:01;10.50;;;7.95;;
7729;SDS011;3908;52.310;7.230;2023-06-19T03:41:48;13.13;;;8.38;;
7729;SDS011;3908;52.310;7.230;2023-06-19T03:44:35;9.15;;;7.40;;
7729;SDS011;3908;52.310;7.230;2023-06-19T03:47:22;9.65;;;7.53;;
7729;SDS011;3908;52.310;7.230;2023-06-19T03:50:09;8.73;;;7.22;;
7729;SDS011;3908;52.310;7.230;2023-06-19T03:52:57;9.65;;;6.85;;
7729;SDS011;3908;52.310;7.230;2023-06-19T03:55:44;8.15;;;7.07;;
7729;SDS011;3908;52.310;7.230;2023-06-19T03:58:31;12.00;;;7.32;;
7729;SDS011;3908;52.310;7.230;2023-06-19T04:01:18;13.13;;;7.15;;
7729;SDS011;3908;52.310;7.230;2023-06-19T04:04:04;8.50;;;7.25;;
7729;SDS011;3908;52.310;7.230;2023-06-19T04:06:51;11.20;;;6.32;;
7729;SDS011;3908;52.310;7.230;2023-06-19T04:09:39;8.35;;;5.68;;
7729;SDS011;3908;52.310;7.230;2023-06-19T04:12:26;8.23;;;5.50;;
7729;SDS011;3908;52.310;7.230;2023-06-19T04:15:13;6.25;;;4.70;;
7729;SDS011;3908;52.310;7.230;2023-06-19T04:18:00;6.22;;;4.43;;
7729;SDS011;3908;52.310;7.230;2023-06-19T04:20:47;6.18;;;3.88;;
7729;SDS011;3908;52.310;7.230;2023-06-19T04:23:33;6.00;;;4.13;;
7729;SDS011;3908;52.310;7.230;2023-06-19T04:26:22;7.35;;;4.18;;
7729;SDS011;3908;52.310;7.230;2023-06-19T04:29:10;6.53;;;4.32;;
7729;SDS011;3908;52.310;7.230;2023-06-19T04:32:02;6.05;;;3.78;;
7729;SDS011;3908;52.310;7.230;2023-06-19T04:34:56;7.20;;;3.80;;
7729;SDS011;3908;52.310;7.230;2023-06-19T04:37:43;5.30;;;4.22;;
7729;SDS011;3908;52.310;7.230;2023-06-19T04:40:30;5.13;;;3.85;;
7729;SDS011;3908;52.310;7.230;2023-06-19T04:43:19;7.60;;;3.95;;
7729;SDS011;3908;52.310;7.230;2023-06-19T04:46:06;4.47;;;3.22;;
7729;SDS011;3908;52.310;7.230;2023-06-19T04:48:52;4.90;;;3.92;;
7729;SDS011;3908;52.310;7.230;2023-06-19T04:51:40;5.25;;;3.75;;
7729;SDS011;3908;52.310;7.230;2023-06-19T04:54:27;5.63;;;4.28;;
7729;SDS011;3908;52.310;7.230;2023-06-19T04:57:14;5.70;;;3.33;;
7729;SDS011;3908;52.310;7.230;2023-06-19T05:00:14;6.88;;;3.88;;
7729;SDS011;3908;52.310;7.230;2023-06-19T05:03:04;5.25;;;3.88;;
7729;SDS011;3908;52.310;7.230;2023-06-19T05:05:51;5.43;;;3.60;;
7729;SDS011;3908;52.310;7.230;2023-06-19T05:08:38;7.05;;;4.10;;
7729;SDS011;3908;52.310;7.230;2023-06-19T05:11:24;5.35;;;3.58;;
7729;SDS011;3908;52.310;7.230;2023-06-19T05:14:11;6.18;;;4.07;;
7729;SDS011;3908;52.310;7.230;2023-06-19T05:17:01;8.23;;;4.32;;
7729;SDS011;3908;52.310;7.230;2023-06-19T05:19:47;6.40;;;4.03;;
7729;SDS011;3908;52.310;7.230;2023-06-19T05:22:35;6.50;;;4.30;;
7729;SDS011;3908;52.310;7.230;2023-06-19T05:25:22;7.38;;;4.10;;
7729;SDS011;3908;52.310;7.230;2023-06-19T05:28:09;10.18;;;4.50;;
7729;SDS011;3908;52.310;7.230;2023-06-19T05:30:56;5.15;;;3.80;;
7729;SDS011;3908;52.310;7.230;2023-06-19T05:33:44;6.38;;;4.53;;
7729;SDS011;3908;52.310;7.230;2023-06-19T05:36:31;7.20;;;4.53;;
7729;SDS011;3908;52.310;7.230;2023-06-19T05:39:18;5.70;;;3.88;;
7729;SDS011;3908;52.310;7.230;2023-06-19T05:42:06;9.32;;;4.20;;
7729;SDS011;3908;52.310;7.230;2023-06-19T05:44:52;9.32;;;4.22;;
7729;SDS011;3908;52.310;7.230;2023-06-19T05:47:39;5.68;;;3.72;;
7729;SDS011;3908;52.310;7.230;2023-06-19T05:50:27;7.43;;;3.95;;
7729;SDS011;3908;52.310;7.230;2023-06-19T05:53:16;5.20;;;4.03;;
7729;SDS011;3908;52.310;7.230;2023-06-19T05:56:03;5.43;;;3.53;;
7729;SDS011;3908;52.310;7.230;2023-06-19T05:58:51;3.90;;;3.25;;
7729;SDS011;3908;52.310;7.230;2023-06-19T06:01:38;3.95;;;3.30;;
7729;SDS011;3908;52.310;7.230;2023-06-19T06:04:25;6.10;;;2.90;;
7729;SDS011;3908;52.310;7.230;2023-06-19T06:07:13;4.97;;;3.38;;
7729;SDS011;3908;52.310;7.230;2023-06-19T06:10:00;5.47;;;2.90;;
7729;SDS011;3908;52.310;7.230;2023-06-19T06:12:47;5.40;;;3.30;;
7729;SDS011;3908;52.310;7.230;2023-06-19T06:15:34;3.90;;;3.38;;
7729;SDS011;3908;52.310;7.230;2023-06-19T06:18:21;4.78;;;3.22;;
7729;SDS011;3908;52.310;7.230;2023-06-19T06:21:08;5.07;;;3.15;;
7729;SDS011;3908;52.310;7.230;2023-06-19T06:23:56;10.20;;;3.78;;
7729;SDS011;3908;52.310;7.230;2023-06-19T06:26:43;5.95;;;3.22;;
7729;SDS011;3908;52.310;7.230;2023-06-19T06:29:30;4.70;;;3.70;;
7729;SDS011;3908;52.310;7.230;2023-06-19T06:32:17;4.75;;;3.88;;
7729;SDS011;3908;52.310;7.230;2023-06-19T06:35:04;6.18;;;3.72;;
7729;SDS011;3908;52.310;7.230;2023-06-19T06:37:51;5.40;;;3.72;;
7729;SDS011;3908;52.310;7.230;2023-06-19T06:40:40;6.15;;;3.85;;
7729;SDS011;3908;52.310;7.230;2023-06-19T06:43:27;4.20;;;3.15;;
7729;SDS011;3908;52.310;7.230;2023-06-19T06:46:14;6.00;;;3.38;;
7729;SDS011;3908;52.310;7.230;2023-06-19T06:49:01;4.15;;;3.08;;
7729;SDS011;3908;52.310;7.230;2023-06-19T06:51:48;3.25;;;2.90;;
7729;SDS011;3908;52.310;7.230;2023-06-19T06:54:34;4.50;;;3.45;;
7729;SDS011;3908;52.310;7.230;2023-06-19T06:57:23;4.47;;;3.40;;
7729;SDS011;3908;52.310;7.230;2023-06-19T07:00:10;5.45;;;3.30;;
7729;SDS011;3908;52.310;7.230;2023-06-19T07:02:58;4.30;;;3.33;;
7729;SDS011;3908;52.310;7.230;2023-06-19T07:05:44;6.28;;;3.42;;
7729;SDS011;3908;52.310;7.230;2023-06-19T07:08:31;5.00;;;3.70;;
7729;SDS011;3908;52.310;7.230;2023-06-19T07:11:18;6.93;;;4.00;;
7729;SDS011;3908;52.310;7.230;2023-06-19T07:14:06;6.03;;;3.25;;
7729;SDS011;3908;52.310;7.230;2023-06-19T07:16:53;4.55;;;3.58;;
7729;SDS011;3908;52.310;7.230;2023-06-19T07:19:40;4.22;;;3.15;;
7729;SDS011;3908;52.310;7.230;2023-06-19T07:22:27;4.03;;;3.40;;
7729;SDS011;3908;52.310;7.230;2023-06-19T07:25:14;7.05;;;3.83;;
7729;SDS011;3908;52.310;7.230;2023-06-19T07:28:00;5.60;;;3.75;;
7729;SDS011;3908;52.310;7.230;2023-06-19T07:30:51;5.53;;;4.28;;
7729;SDS011;3908;52.310;7.230;2023-06-19T07:33:37;4.72;;;3.95;;
7729;SDS011;3908;52.310;7.230;2023-06-19T07:36:25;5.50;;;3.95;;
7729;SDS011;3908;52.310;7.230;2023-06-19T07:39:11;6.90;;;4.38;;
7729;SDS011;3908;52.310;7.230;2023-06-19T07:41:58;7.28;;;4.40;;
7729;SDS011;3908;52.310;7.230;2023-06-19T07:44:45;4.90;;;3.70;;
7729;SDS011;3908;52.310;7.230;2023-06-19T07:47:33;9.25;;;4.53;;
7729;SDS011;3908;52.310;7.230;2023-06-19T07:50:20;5.28;;;4.03;;
7729;SDS011;3908;52.310;7.230;2023-06-19T07:53:07;5.28;;;3.50;;
7729;SDS011;3908;52.310;7.230;2023-06-19T07:55:54;6.70;;;3.88;;
7729;SDS011;3908;52.310;7.230;2023-06-19T07:58:41;6.15;;;3.67;;
7729;SDS011;3908;52.310;7.230;2023-06-19T08:01:27;10.35;;;3.88;;
7729;SDS011;3908;52.310;7.230;2023-06-19T08:04:16;6.22;;;3.70;;
7729;SDS011;3908;52.310;7.230;2023-06-19T08:07:03;7.38;;;4.47;;
7729;SDS011;3908;52.310;7.230;2023-06-19T08:09:50;5.97;;;4.03;;
7729;SDS011;3908;52.310;7.230;2023-06-19T08:12:36;13.10;;;4.70;;
7729;SDS011;3908;52.310;7.230;2023-06-19T08:15:23;5.22;;;4.60;;
7729;SDS011;3908;52.310;7.230;2023-06-19T08:18:10;6.65;;;4.05;;
7729;SDS011;3908;52.310;7.230;2023-06-19T08:20:58;11.27;;;4.30;;
7729;SDS011;3908;52.310;7.230;2023-06-19T08:23:45;7.38;;;4.10;;
7729;SDS011;3908;52.310;7.230;2023-06-19T08:26:32;6.32;;;4.00;;
7729;SDS011;3908;52.310;7.230;2023-06-19T08:29:19;6.35;;;4.15;;
7729;SDS011;3908;52.310;7.230;2023-06-19T08:32:06;7.15;;;4.53;;
7729;SDS011;3908;52.310;7.230;2023-06-19T08:34:54;7.32;;;4.88;;
7729;SDS011;3908;52.310;7.230;2023-06-19T08:37:43;5.43;;;4.35;;
7729;SDS011;3908;52.310;7.230;2023-06-19T08:40:30;6.20;;;4.35;;
7729;SDS011;3908;52.310;7.230;2023-06-19T08:43:17;6.07;;;4.80;;
7729;SDS011;3908;52.310;7.230;2023-06-19T08:46:10;9.00;;;4.95;;
7729;SDS011;3908;52.310;7.230;2023-06-19T08:48:57;8.23;;;6.22;;
7729;SDS011;3908;52.310;7.230;2023-06-19T08:51:45;7.57;;;5.57;;
7729;SDS011;3908;52.310;7.230;2023-06-19T08:54:33;7.55;;;4.60;;
7729;SDS011;3908;52.310;7.230;2023-06-19T08:57:35;8.30;;;5.25;;
7729;SDS011;3908;52.310;7.230;2023-06-19T09:00:24;7.70;;;4.40;;
7729;SDS011;3908;52.310;7.230;2023-06-19T09:03:11;5.53;;;4.43;;
7729;SDS011;3908;52.310;7.230;2023-06-19T09:06:02;4.63;;;3.80;;
7729;SDS011;3908;52.310;7.230;2023-06-19T09:08:57;5.85;;;4.72;;
7729;SDS011;3908;52.310;7.230;2023-06-19T09:11:54;8.60;;;5.65;;
7729;SDS011;3908;52.310;7.230;2023-06-19T09:14:41;7.68;;;5.80;;
7729;SDS011;3908;52.310;7.230;2023-06-19T09:17:28;6.00;;;5.35;;
7729;SDS011;3908;52.310;7.230;2023-06-19T09:20:15;7.18;;;4.65;;
7729;SDS011;3908;52.310;7.230;2023-06-19T09:23:12;7.93;;;5.00;;
7729;SDS011;3908;52.310;7.230;2023-06-19T09:25:59;7.32;;;4.40;;
7729;SDS011;3908;52.310;7.230;2023-06-19T09:28:47;5.15;;;4.65;;
7729;SDS011;3908;52.310;7.230;2023-06-19T09:31:35;5.85;;;4.43;;
7729;SDS011;3908;52.310;7.230;2023-06-19T09:34:23;7.18;;;4.57;;
7729;SDS011;3908;52.310;7.230;2023-06-19T09:37:10;4.53;;;3.92;;
7729;SDS011;3908;52.310;7.230;2023-06-19T09:39:58;4.10;;;3.40;;
7729;SDS011;3908;52.310;7.230;2023-06-19T09:42:45;6.47;;;4.40;;
7729;SDS011;3908;52.310;7.230;2023-06-19T09:45:34;5.18;;;4.18;;
7729;SDS011;3908;52.310;7.230;2023-06-19T09:48:22;5.68;;;3.78;;
7729;SDS011;3908;52.310;7.230;2023-06-19T09:51:16;5.10;;;3.90;;
7729;SDS011;3908;52.310;7.230;2023-06-19T09:54:03;5.72;;;3.97;;
7729;SDS011;3908;52.310;7.230;2023-06-19T09:56:52;6.50;;;4.53;;
7729;SDS011;3908;52.310;7.230;2023-06-19T09:59:41;4.93;;;4.18;;
7729;SDS011;3908;52.310;7.230;2023-06-19T10:02:30;5.50;;;3.45;;
7729;SDS011;3908;52.310;7.230;2023-06-19T10:05:17;5.60;;;4.13;;
7729;SDS011;3908;52.310;7.230;2023-06-19T10:08:05;5.10;;;3.97;;
7729;SDS011;3908;52.310;7.230;2023-06-19T10:10:54;5.72;;;4.35;;
7729;SDS011;3908;52.310;7.230;2023-06-19T10:13:42;4.50;;;3.83;;
7729;SDS011;3908;52.310;7.230;2023-06-19T10:16:31;5.80;;;4.55;;
7729;SDS011;3908;52.310;7.230;2023-06-19T10:19:20;4.38;;;3.78;;
7729;SDS011;3908;52.310;7.230;2023-06-19T10:22:07;5.60;;;4.63;;
7729;SDS011;3908;52.310;7.230;2023-06-19T10:24:54;7.15;;;4.38;;
7729;SDS011;3908;52.310;7.230;2023-06-19T10:27:41;5.32;;;3.90;;
7729;SDS011;3908;52.310;7.230;2023-06-19T10:30:28;5.82;;;4.00;;
7729;SDS011;3908;52.310;7.230;2023-06-19T10:33:15;5.40;;;3.80;;
7729;SDS011;3908;52.310;7.230;2023-06-19T10:36:13;5.32;;;4.00;;
7729;SDS011;3908;52.310;7.230;2023-06-19T10:39:00;4.35;;;3.85;;
7729;SDS011;3908;52.310;7.230;2023-06-19T10:41:47;4.32;;;3.92;;
7729;SDS011;3908;52.310;7.230;2023-06-19T10:44:34;5.20;;;4.53;;
7729;SDS011;3908;52.310;7.230;2023-06-19T10:47:22;6.53;;;4.07;;
7729;SDS011;3908;52.310;7.230;2023-06-19T10:50:10;4.57;;;3.97;;
7729;SDS011;3908;52.310;7.230;2023-06-19T10:52:58;5.43;;;4.50;;
7729;SDS011;3908;52.310;7.230;2023-06-19T10:55:45;5.75;;;4.28;;
7729;SDS011;3908;52.310;7.230;2023-06-19T10:58:32;12.75;;;5.22;;
7729;SDS011;3908;52.310;7.230;2023-06-19T11:01:19;8.13;;;4.78;;
7729;SDS011;3908;52.310;7.230;2023-06-19T11:04:07;6.30;;;4.40;;
7729;SDS011;3908;52.310;7.230;2023-06-19T11:06:54;6.97;;;5.35;;
7729;SDS011;3908;52.310;7.230;2023-06-19T11:09:42;7.15;;;5.72;;
7729;SDS011;3908;52.310;7.230;2023-06-19T11:12:29;8.38;;;6.47;;
7729;SDS011;3908;52.310;7.230;2023-06-19T11:15:17;8.65;;;5.70;;
7729;SDS011;3908;52.310;7.230;2023-06-19T11:18:04;8.32;;;6.05;;
7729;SDS011;3908;52.310;7.230;2023-06-19T11:20:51;9.52;;;6.80;;
7729;SDS011;3908;52.310;7.230;2023-06-19T11:23:38;9.85;;;6.70;;
7729;SDS011;3908;52.310;7.230;2023-06-19T11:26:27;9.48;;;6.35;;
7729;SDS011;3908;52.310;7.230;2023-06-19T11:29:14;8.25;;;6.20;;
7729;SDS011;3908;52.310;7.230;2023-06-19T11:32:05;9.93;;;6.45;;
7729;SDS011;3908;52.310;7.230;2023-06-19T11:34:52;9.88;;;6.50;;
7729;SDS011;3908;52.310;7.230;2023-06-19T11:37:40;7.20;;;5.82;;
7729;SDS011;3908;52.310;7.230;2023-06-19T11:40:27;10.07;;;5.50;;
7729;SDS011;3908;52.310;7.230;2023-06-19T11:43:24;13.93;;;6.88;;
7729;SDS011;3908;52.310;7.230;2023-06-19T11:46:11;8.88;;;6.68;;
7729;SDS011;3908;52.310;7.230;2023-06-19T11:49:09;11.23;;;6.88;;
7729;SDS011;3908;52.310;7.230;2023-06-19T11:51:56;9.50;;;7.00;;
7729;SDS011;3908;52.310;7.230;2023-06-19T11:54:42;9.40;;;6.72;;
7729;SDS011;3908;52.310;7.230;2023-06-19T11:57:29;8.88;;;6.47;;
7729;SDS011;3908;52.310;7.230;2023-06-19T12:00:19;8.65;;;6.68;;
7729;SDS011;3908;52.310;7.230;2023-06-19T12:03:05;16.67;;;9.82;;
7729;SDS011;3908;52.310;7.230;2023-06-19T12:05:55;7.93;;;6.30;;
7729;SDS011;3908;52.310;7.230;2023-06-19T12:08:41;8.70;;;6.90;;
7729;SDS011;3908;52.310;7.230;2023-06-19T12:11:28;11.40;;;6.50;;
7729;SDS011;3908;52.310;7.230;2023-06-19T12:14:15;7.78;;;6.50;;
7729;SDS011;3908;52.310;7.230;2023-06-19T12:17:05;12.93;;;8.90;;
7729;SDS011;3908;52.310;7.230;2023-06-19T12:19:51;9.70;;;7.60;;
7729;SDS011;3908;52.310;7.230;2023-06-19T12:22:38;8.55;;;6.80;;
7729;SDS011;3908;52.310;7.230;2023-06-19T12:25:25;9.73;;;6.28;;
7729;SDS011;3908;52.310;7.230;2023-06-19T12:28:12;9.95;;;7.15;;
7729;SDS011;3908;52.310;7.230;2023-06-19T12:31:03;16.52;;;10.90;;
7729;SDS011;3908;52.310;7.230;2023-06-19T12:33:52;20.90;;;17.27;;
7729;SDS011;3908;52.310;7.230;2023-06-19T12:36:38;11.48;;;7.32;;
7729;SDS011;3908;52.310;7.230;2023-06-19T12:39:25;11.93;;;8.00;;
7729;SDS011;3908;52.310;7.230;2023-06-19T12:42:13;12.88;;;7.15;;
7729;SDS011;3908;52.310;7.230;2023-06-19T12:44:59;8.88;;;6.97;;
7729;SDS011;3908;52.310;7.230;2023-06-19T12:47:46;9.85;;;6.43;;
7729;SDS011;3908;52.310;7.230;2023-06-19T12:50:35;8.93;;;6.25;;
7729;SDS011;3908;52.310;7.230;2023-06-19T12:53:21;9.40;;;6.65;;
7729;SDS011;3908;52.310;7.230;2023-06-19T12:56:12;10.32;;;6.72;;
7729;SDS011;3908;52.310;7.230;2023-06-19T12:58:58;6.53;;;5.82;;
7729;SDS011;3908;52.310;7.230;2023-06-19T13:01:45;6.78;;;5.55;;
7729;SDS011;3908;52.310;7.230;2023-06-19T13:04:32;13.63;;;7.00;;
7729;SDS011;3908;52.310;7.230;2023-06-19T13:07:20;6.70;;;5.68;;
7729;SDS011;3908;52.310;7.230;2023-06-19T13:10:07;7.35;;;6.45;;
7729;SDS011;3908;52.310;7.230;2023-06-19T13:12:54;8.85;;;6.13;;
7729;SDS011;3908;52.310;7.230;2023-06-19T13:15:43;9.57;;;6.82;;
7729;SDS011;3908;52.310;7.230;2023-06-19T13:18:30;8.52;;;7.05;;
7729;SDS011;3908;52.310;7.230;2023-06-19T13:21:17;8.27;;;7.15;;
7729;SDS011;3908;52.310;7.230;2023-06-19T13:24:05;9.77;;;6.70;;
7729;SDS011;3908;52.310;7.230;2023-06-19T13:26:52;14.20;;;6.32;;
7729;SDS011;3908;52.310;7.230;2023-06-19T13:29:39;8.50;;;5.97;;
7729;SDS011;3908;52.310;7.230;2023-06-19T13:32:26;10.77;;;6.95;;
7729;SDS011;3908;52.310;7.230;2023-06-19T13:35:13;6.38;;;5.32;;
7729;SDS011;3908;52.310;7.230;2023-06-19T13:38:00;9.77;;;6.75;;
7729;SDS011;3908;52.310;7.230;2023-06-19T13:40:48;6.53;;;5.57;;
7729;SDS011;3908;52.310;7.230;2023-06-19T13:43:35;8.85;;;6.03;;
7729;SDS011;3908;52.310;7.230;2023-06-19T13:46:23;6.80;;;5.75;;
7729;SDS011;3908;52.310;7.230;2023-06-19T13:49:10;8.38;;;6.63;;
7729;SDS011;3908;52.310;7.230;2023-06-19T13:51:59;7.10;;;5.30;;
7729;SDS011;3908;52.310;7.230;2023-06-19T13:54:46;9.13;;;6.28;;
7729;SDS011;3908;52.310;7.230;2023-06-19T13:57:34;6.78;;;6.07;;
7729;SDS011;3908;52.310;7.230;2023-06-19T14:00:22;6.55;;;5.22;;
7729;SDS011;3908;52.310;7.230;2023-06-19T14:03:09;8.73;;;5.82;;
7729;SDS011;3908;52.310;7.230;2023-06-19T14:05:56;10.05;;;5.82;;
7729;SDS011;3908;52.310;7.230;2023-06-19T14:08:43;7.25;;;5.25;;
7729;SDS011;3908;52.310;7.230;2023-06-19T14:11:30;9.27;;;6.65;;
7729;SDS011;3908;52.310;7.230;2023-06-19T14:14:19;8.77;;;6.20;;
7729;SDS011;3908;52.310;7.230;2023-06-19T14:17:06;8.35;;;6.07;;
7729;SDS011;3908;52.310;7.230;2023-06-19T14:19:56;17.17;;;5.93;;
7729;SDS011;3908;52.310;7.230;2023-06-19T14:22:43;8.98;;;6.07;;
7729;SDS011;3908;52.310;7.230;2023-06-19T14:25:30;7.78;;;6.18;;
7729;SDS011;3908;52.310;7.230;2023-06-19T14:28:16;7.00;;;5.97;;
7729;SDS011;3908;52.310;7.230;2023-06-19T14:31:05;8.20;;;5.85;;
7729;SDS011;3908;52.310;7.230;2023-06-19T14:33:51;8.85;;;6.25;;
7729;SDS011;3908;52.310;7.230;2023-06-19T14:36:38;6.88;;;6.07;;
7729;SDS011;3908;52.310;7.230;2023-06-19T14:39:25;7.38;;;5.07;;
7729;SDS011;3908;52.310;7.230;2023-06-19T14:42:12;7.00;;;5.95;;
7729;SDS011;3908;52.310;7.230;2023-06-19T14:44:59;9.38;;;5.68;;
7729;SDS011;3908;52.310;7.230;2023-06-19T14:47:47;6.78;;;5.57;;
7729;SDS011;3908;52.310;7.230;2023-06-19T14:50:34;8.02;;;5.70;;
7729;SDS011;3908;52.310;7.230;2023-06-19T14:53:21;8.57;;;7.05;;
7729;SDS011;3908;52.310;7.230;2023-06-19T14:56:10;6.38;;;5.70;;
7729;SDS011;3908;52.310;7.230;2023-06-19T14:58:57;9.38;;;5.68;;
7729;SDS011;3908;52.310;7.230;2023-06-19T15:01:44;8.98;;;5.97;;
7729;SDS011;3908;52.310;7.230;2023-06-19T15:04:32;8.80;;;5.97;;
7729;SDS011;3908;52.310;7.230;2023-06-19T15:07:19;9.35;;;5.65;;
7729;SDS011;3908;52.310;7.230;2023-06-19T15:10:06;6.93;;;5.30;;
7729;SDS011;3908;52.310;7.230;2023-06-19T15:12:53;8.98;;;5.53;;
7729;SDS011;3908;52.310;7.230;2023-06-19T15:15:40;9.57;;;6.22;;
7729;SDS011;3908;52.310;7.230;2023-06-19T15:18:27;6.18;;;5.25;;
7729;SDS011;3908;52.310;7.230;2023-06-19T15:21:15;7.75;;;5.85;;
7729;SDS011;3908;52.310;7.230;2023-06-19T15:24:02;8.25;;;6.47;;
7729;SDS011;3908;52.310;7.230;2023-06-19T15:26:49;9.07;;;5.75;;
7729;SDS011;3908;52.310;7.230;2023-06-19T15:29:36;6.10;;;5.50;;
7729;SDS011;3908;52.310;7.230;2023-06-19T15:32:24;9.30;;;6.28;;
7729;SDS011;3908;52.310;7.230;2023-06-19T15:35:11;9.43;;;5.93;;
7729;SDS011;3908;52.310;7.230;2023-06-19T15:37:59;9.48;;;5.65;;
7729;SDS011;3908;52.310;7.230;2023-06-19T15:40:46;7.13;;;5.45;;
7729;SDS011;3908;52.310;7.230;2023-06-19T15:43:33;6.72;;;5.43;;
7729;SDS011;3908;52.310;7.230;2023-06-19T15:46:19;10.70;;;6.28;;
7729;SDS011;3908;52.310;7.230;2023-06-19T15:49:06;9.35;;;6.07;;
7729;SDS011;3908;52.310;7.230;2023-06-19T15:51:53;7.57;;;5.97;;
7729;SDS011;3908;52.310;7.230;2023-06-19T15:54:41;6.43;;;5.78;;
7729;SDS011;3908;52.310;7.230;2023-06-19T15:57:28;11.63;;;6.22;;
7729;SDS011;3908;52.310;7.230;2023-06-19T16:00:15;9.35;;;7.03;;
7729;SDS011;3908;52.310;7.230;2023-06-19T16:03:02;8.55;;;5.50;;
7729;SDS011;3908;52.310;7.230;2023-06-19T16:05:49;7.97;;;5.72;;
7729;SDS011;3908;52.310;7.230;2023-06-19T16:08:37;7.72;;;5.43;;
7729;SDS011;3908;52.310;7.230;2023-06-19T16:11:25;6.80;;;5.80;;
7729;SDS011;3908;52.310;7.230;2023-06-19T16:14:12;7.88;;;5.93;;
7729;SDS011;3908;52.310;7.230;2023-06-19T16:17:00;8.23;;;5.90;;
7729;SDS011;3908;52.310;7.230;2023-06-19T16:19:47;8.32;;;6.00;;
7729;SDS011;3908;52.310;7.230;2023-06-19T16:22:34;7.13;;;5.90;;
7729;SDS011;3908;52.310;7.230;2023-06-19T16:25:21;8.52;;;6.18;;
7729;SDS011;3908;52.310;7.230;2023-06-19T16:28:09;6.35;;;5.57;;
7729;SDS011;3908;52.310;7.230;2023-06-19T16:30:56;11.05;;;6.25;;
7729;SDS011;3908;52.310;7.230;2023-06-19T16:33:43;6.55;;;5.38;;
7729;SDS011;3908;52.310;7.230;2023-06-19T16:36:29;10.43;;;5.93;;
7729;SDS011;3908;52.310;7.230;2023-06-19T16:39:16;7.53;;;5.80;;
7729;SDS011;3908;52.310;7.230;2023-06-19T16:42:04;7.18;;;6.43;;
7729;SDS011;3908;52.310;7.230;2023-06-19T16:44:56;6.95;;;5.80;;
7729;SDS011;3908;52.310;7.230;2023-06-19T16:47:43;8.02;;;5.82;;
7729;SDS011;3908;52.310;7.230;2023-06-19T16:50:31;9.65;;;5.97;;
7729;SDS011;3908;52.310;7.230;2023-06-19T16:53:20;9.68;;;6.07;;
7729;SDS011;3908;52.310;7.230;2023-06-19T16:56:07;10.20;;;5.65;;
7729;SDS011;3908;52.310;7.230;2023-06-19T16:58:56;9.68;;;6.25;;
7729;SDS011;3908;52.310;7.230;2023-06-19T17:01:46;9.40;;;6.32;;
7729;SDS011;3908;52.310;7.230;2023-06-19T17:04:33;7.15;;;5.55;;
7729;SDS011;3908;52.310;7.230;2023-06-19T17:07:20;7.20;;;5.53;;
7729;SDS011;3908;52.310;7.230;2023-06-19T17:10:07;7.40;;;5.10;;
7729;SDS011;3908;52.310;7.230;2023-06-19T17:12:53;7.20;;;5.05;;
7729;SDS011;3908;52.310;7.230;2023-06-19T17:15:40;8.05;;;5.63;;
7729;SDS011;3908;52.310;7.230;2023-06-19T17:18:29;7.45;;;5.10;;